sensor_id;sensor_type;location;lat;lon;timestamp;temperature;humidity
53208;DHT22;39093;52.788;6.940;2023-05-28T00:00:53;13.30;99.90
53208;DHT22;39093;52.788;6.940;2023-05-28T00:03:24;13.20;99.90
53208;DHT22;39093;52.788;6.940;2023-05-28T00:05:52;13.20;99.90
53208;DHT22;39093;52.788;6.940;2023-05-28T00:08:19;13.10;99.90
53208;DHT22;39093;52.788;6.940;2023-05-28T00:10:47;13.00;99.90
53208;DHT22;39093;52.788;6.940;2023-05-28T00:13:14;13.00;99.90
53208;DHT22;39093;52.788;6.940;2023-05-28T00:15:41;13.00;99.90
53208;DHT22;39093;52.788;6.940;2023-05-28T00:18:08;13.00;99.90
53208;DHT22;39093;52.788;6.940;2023-05-28T00:20:38;12.90;99.90
53208;DHT22;39093;52.788;6.940;2023-05-28T00:23:06;12.80;99.90
53208;DHT22;39093;52.788;6.940;2023-05-28T00:25:33;12.80;99.90
53208;DHT22;39093;52.788;6.940;2023-05-28T00:28:00;12.80;99.90
53208;DHT22;39093;52.788;6.940;2023-05-28T00:30:27;12.70;99.90
53208;DHT22;39093;52.788;6.940;2023-05-28T00:32:54;12.70;99.90
53208;DHT22;39093;52.788;6.940;2023-05-28T00:35:21;12.60;99.90
53208;DHT22;39093;52.788;6.940;2023-05-28T00:37:48;12.60;99.90
53208;DHT22;39093;52.788;6.940;2023-05-28T00:40:15;12.50;99.90
53208;DHT22;39093;52.788;6.940;2023-05-28T00:42:45;12.50;99.90
53208;DHT22;39093;52.788;6.940;2023-05-28T00:45:12;12.50;99.90
53208;DHT22;39093;52.788;6.940;2023-05-28T00:47:40;12.40;99.90
53208;DHT22;39093;52.788;6.940;2023-05-28T00:50:08;12.50;99.90
53208;DHT22;39093;52.788;6.940;2023-05-28T00:52:36;12.50;99.90
53208;DHT22;39093;52.788;6.940;2023-05-28T00:55:12;12.50;99.90
53208;DHT22;39093;52.788;6.940;2023-05-28T00:57:40;12.50;99.90
53208;DHT22;39093;52.788;6.940;2023-05-28T01:00:08;12.50;99.90
53208;DHT22;39093;52.788;6.940;2023-05-28T01:02:36;12.50;99.90
53208;DHT22;39093;52.788;6.940;2023-05-28T01:05:04;12.50;99.90
53208;DHT22;39093;52.788;6.940;2023-05-28T01:07:31;12.50;99.90
53208;DHT22;39093;52.788;6.940;2023-05-28T01:09:59;12.40;99.90
53208;DHT22;39093;52.788;6.940;2023-05-28T01:12:26;12.40;99.90
53208;DHT22;39093;52.788;6.940;2023-05-28T01:14:54;12.40;99.90
53208;DHT22;39093;52.788;6.940;2023-05-28T01:17:21;12.40;99.90
53208;DHT22;39093;52.788;6.940;2023-05-28T01:19:48;12.40;99.90
53208;DHT22;39093;52.788;6.940;2023-05-28T01:22:17;12.40;99.90
53208;DHT22;39093;52.788;6.940;2023-05-28T01:24:49;12.30;99.90
53208;DHT22;39093;52.788;6.940;2023-05-28T01:27:18;12.30;99.90
53208;DHT22;39093;52.788;6.940;2023-05-28T01:29:46;12.30;99.90
53208;DHT22;39093;52.788;6.940;2023-05-28T01:32:13;12.30;99.90
53208;DHT22;39093;52.788;6.940;2023-05-28T01:34:41;12.30;99.90
53208;DHT22;39093;52.788;6.940;2023-05-28T01:37:09;12.20;99.90
53208;DHT22;39093;52.788;6.940;2023-05-28T01:39:43;12.10;99.90
53208;DHT22;39093;52.788;6.940;2023-05-28T01:42:12;12.00;99.90
53208;DHT22;39093;52.788;6.940;2023-05-28T01:44:40;12.00;99.90
53208;DHT22;39093;52.788;6.940;2023-05-28T01:47:10;11.90;99.90
53208;DHT22;39093;52.788;6.940;2023-05-28T01:49:39;11.90;99.90
53208;DHT22;39093;52.788;6.940;2023-05-28T01:52:08;11.80;99.90
53208;DHT22;39093;52.788;6.940;2023-05-28T01:54:35;11.70;99.90
53208;DHT22;39093;52.788;6.940;2023-05-28T01:57:02;11.70;99.90
53208;DHT22;39093;52.788;6.940;2023-05-28T01:59:29;11.60;99.90
53208;DHT22;39093;52.788;6.940;2023-05-28T02:01:56;11.50;99.90
53208;DHT22;39093;52.788;6.940;2023-05-28T02:04:24;11.50;99.90
53208;DHT22;39093;52.788;6.940;2023-05-28T02:06:51;11.40;99.90
53208;DHT22;39093;52.788;6.940;2023-05-28T02:09:18;11.40;99.90
53208;DHT22;39093;52.788;6.940;2023-05-28T02:11:45;11.40;99.90
53208;DHT22;39093;52.788;6.940;2023-05-28T02:14:12;11.50;99.90
53208;DHT22;39093;52.788;6.940;2023-05-28T02:16:42;11.50;99.90
53208;DHT22;39093;52.788;6.940;2023-05-28T02:19:10;11.50;99.90
53208;DHT22;39093;52.788;6.940;2023-05-28T02:21:38;11.50;99.90
53208;DHT22;39093;52.788;6.940;2023-05-28T02:24:06;11.50;99.90
53208;DHT22;39093;52.788;6.940;2023-05-28T02:26:33;11.50;99.90
53208;DHT22;39093;52.788;6.940;2023-05-28T02:28:59;11.60;99.90
53208;DHT22;39093;52.788;6.940;2023-05-28T02:31:26;11.60;99.90
53208;DHT22;39093;52.788;6.940;2023-05-28T02:33:53;11.60;99.90
53208;DHT22;39093;52.788;6.940;2023-05-28T02:36:20;11.60;99.90
53208;DHT22;39093;52.788;6.940;2023-05-28T02:38:47;11.50;99.90
53208;DHT22;39093;52.788;6.940;2023-05-28T02:41:14;11.40;99.90
53208;DHT22;39093;52.788;6.940;2023-05-28T02:43:42;11.40;99.90
53208;DHT22;39093;52.788;6.940;2023-05-28T02:46:09;11.50;99.90
53208;DHT22;39093;52.788;6.940;2023-05-28T02:48:36;11.50;99.90
53208;DHT22;39093;52.788;6.940;2023-05-28T02:51:03;11.50;99.90
53208;DHT22;39093;52.788;6.940;2023-05-28T02:53:31;11.50;99.90
53208;DHT22;39093;52.788;6.940;2023-05-28T02:55:58;11.50;99.90
53208;DHT22;39093;52.788;6.940;2023-05-28T02:58:26;11.50;99.90
53208;DHT22;39093;52.788;6.940;2023-05-28T03:00:55;11.50;99.90
53208;DHT22;39093;52.788;6.940;2023-05-28T03:03:22;11.60;99.90
53208;DHT22;39093;52.788;6.940;2023-05-28T03:05:49;11.60;99.90
53208;DHT22;39093;52.788;6.940;2023-05-28T03:08:18;11.60;99.90
53208;DHT22;39093;52.788;6.940;2023-05-28T03:10:44;11.50;99.90
53208;DHT22;39093;52.788;6.940;2023-05-28T03:13:11;11.50;99.90
53208;DHT22;39093;52.788;6.940;2023-05-28T03:15:38;11.40;99.90
53208;DHT22;39093;52.788;6.940;2023-05-28T03:18:05;11.40;99.90
53208;DHT22;39093;52.788;6.940;2023-05-28T03:20:32;11.40;99.90
53208;DHT22;39093;52.788;6.940;2023-05-28T03:23:00;11.30;99.90
53208;DHT22;39093;52.788;6.940;2023-05-28T03:25:27;11.30;99.90
53208;DHT22;39093;52.788;6.940;2023-05-28T03:27:54;11.40;99.90
53208;DHT22;39093;52.788;6.940;2023-05-28T03:30:24;11.40;99.90
53208;DHT22;39093;52.788;6.940;2023-05-28T03:32:51;11.40;99.90
53208;DHT22;39093;52.788;6.940;2023-05-28T03:35:18;11.40;99.90
53208;DHT22;39093;52.788;6.940;2023-05-28T03:37:45;11.30;99.90
53208;DHT22;39093;52.788;6.940;2023-05-28T03:40:14;11.40;99.90
53208;DHT22;39093;52.788;6.940;2023-05-28T03:42:41;11.40;99.90
53208;DHT22;39093;52.788;6.940;2023-05-28T03:45:08;11.40;99.90
53208;DHT22;39093;52.788;6.940;2023-05-28T03:47:36;11.40;99.90
53208;DHT22;39093;52.788;6.940;2023-05-28T03:50:04;11.40;99.90
53208;DHT22;39093;52.788;6.940;2023-05-28T03:52:31;11.40;99.90
53208;DHT22;39093;52.788;6.940;2023-05-28T03:54:58;11.40;99.90
53208;DHT22;39093;52.788;6.940;2023-05-28T03:57:26;11.40;99.90
53208;DHT22;39093;52.788;6.940;2023-05-28T03:59:53;11.30;99.90
53208;DHT22;39093;52.788;6.940;2023-05-28T04:02:23;11.40;99.90
53208;DHT22;39093;52.788;6.940;2023-05-28T04:04:50;11.40;99.90
53208;DHT22;39093;52.788;6.940;2023-05-28T04:07:17;11.40;99.90
53208;DHT22;39093;52.788;6.940;2023-05-28T04:09:44;11.40;99.90
53208;DHT22;39093;52.788;6.940;2023-05-28T04:12:11;11.50;99.90
53208;DHT22;39093;52.788;6.940;2023-05-28T04:14:39;11.50;99.90
53208;DHT22;39093;52.788;6.940;2023-05-28T04:17:11;11.50;99.90
53208;DHT22;39093;52.788;6.940;2023-05-28T04:19:40;11.60;99.90
53208;DHT22;39093;52.788;6.940;2023-05-28T04:22:07;11.60;99.90
53208;DHT22;39093;52.788;6.940;2023-05-28T04:24:35;11.50;99.90
53208;DHT22;39093;52.788;6.940;2023-05-28T04:27:02;11.50;99.90
53208;DHT22;39093;52.788;6.940;2023-05-28T04:29:30;11.50;99.90
53208;DHT22;39093;52.788;6.940;2023-05-28T04:31:57;11.50;99.90
53208;DHT22;39093;52.788;6.940;2023-05-28T04:34:25;11.50;99.90
53208;DHT22;39093;52.788;6.940;2023-05-28T04:36:52;11.50;99.90
53208;DHT22;39093;52.788;6.940;2023-05-28T04:39:19;11.60;99.90
53208;DHT22;39093;52.788;6.940;2023-05-28T04:41:49;11.70;99.90
53208;DHT22;39093;52.788;6.940;2023-05-28T04:44:15;11.70;99.90
53208;DHT22;39093;52.788;6.940;2023-05-28T04:46:43;11.70;99.90
53208;DHT22;39093;52.788;6.940;2023-05-28T04:49:12;11.70;99.90
53208;DHT22;39093;52.788;6.940;2023-05-28T04:51:39;11.70;99.90
53208;DHT22;39093;52.788;6.940;2023-05-28T04:54:06;11.70;99.90
53208;DHT22;39093;52.788;6.940;2023-05-28T04:56:33;11.60;99.90
53208;DHT22;39093;52.788;6.940;2023-05-28T04:59:00;11.70;99.90
53208;DHT22;39093;52.788;6.940;2023-05-28T05:01:27;11.70;99.90
53208;DHT22;39093;52.788;6.940;2023-05-28T05:03:54;11.70;99.90
53208;DHT22;39093;52.788;6.940;2023-05-28T05:06:21;11.70;99.90
53208;DHT22;39093;52.788;6.940;2023-05-28T05:08:48;11.70;99.90
53208;DHT22;39093;52.788;6.940;2023-05-28T05:11:17;11.70;99.90
53208;DHT22;39093;52.788;6.940;2023-05-28T05:13:44;11.70;99.90
53208;DHT22;39093;52.788;6.940;2023-05-28T05:16:11;11.70;99.90
53208;DHT22;39093;52.788;6.940;2023-05-28T05:18:39;11.70;99.90
53208;DHT22;39093;52.788;6.940;2023-05-28T05:21:06;11.80;99.90
53208;DHT22;39093;52.788;6.940;2023-05-28T05:23:36;11.80;99.90
53208;DHT22;39093;52.788;6.940;2023-05-28T05:26:03;11.70;99.90
53208;DHT22;39093;52.788;6.940;2023-05-28T05:28:30;11.80;99.90
53208;DHT22;39093;52.788;6.940;2023-05-28T05:30:57;11.80;99.90
53208;DHT22;39093;52.788;6.940;2023-05-28T05:33:24;11.90;99.90
53208;DHT22;39093;52.788;6.940;2023-05-28T05:35:51;11.90;99.90
53208;DHT22;39093;52.788;6.940;2023-05-28T05:38:21;11.90;99.90
53208;DHT22;39093;52.788;6.940;2023-05-28T05:40:48;12.00;99.90
53208;DHT22;39093;52.788;6.940;2023-05-28T05:43:15;12.10;99.90
53208;DHT22;39093;52.788;6.940;2023-05-28T05:45:42;12.10;99.90
53208;DHT22;39093;52.788;6.940;2023-05-28T05:48:09;12.20;99.90
53208;DHT22;39093;52.788;6.940;2023-05-28T05:50:50;12.20;99.90
53208;DHT22;39093;52.788;6.940;2023-05-28T05:53:19;12.30;99.90
53208;DHT22;39093;52.788;6.940;2023-05-28T05:55:47;12.30;99.90
53208;DHT22;39093;52.788;6.940;2023-05-28T05:58:15;12.30;99.90
53208;DHT22;39093;52.788;6.940;2023-05-28T06:00:43;12.40;99.90
53208;DHT22;39093;52.788;6.940;2023-05-28T06:03:10;12.40;99.90
53208;DHT22;39093;52.788;6.940;2023-05-28T06:05:38;12.40;99.90
53208;DHT22;39093;52.788;6.940;2023-05-28T06:08:05;12.50;99.90
53208;DHT22;39093;52.788;6.940;2023-05-28T06:10:32;12.50;99.90
53208;DHT22;39093;52.788;6.940;2023-05-28T06:12:59;12.60;99.90
53208;DHT22;39093;52.788;6.940;2023-05-28T06:15:28;12.70;99.90
53208;DHT22;39093;52.788;6.940;2023-05-28T06:17:56;12.80;99.90
53208;DHT22;39093;52.788;6.940;2023-05-28T06:20:23;12.90;99.90
53208;DHT22;39093;52.788;6.940;2023-05-28T06:22:50;13.00;99.90
53208;DHT22;39093;52.788;6.940;2023-05-28T06:25:17;13.10;99.90
53208;DHT22;39093;52.788;6.940;2023-05-28T06:27:44;13.20;99.90
53208;DHT22;39093;52.788;6.940;2023-05-28T06:30:12;13.40;99.90
53208;DHT22;39093;52.788;6.940;2023-05-28T06:32:39;13.60;99.90
53208;DHT22;39093;52.788;6.940;2023-05-28T06:35:06;13.90;99.90
53208;DHT22;39093;52.788;6.940;2023-05-28T06:37:34;14.20;99.90
53208;DHT22;39093;52.788;6.940;2023-05-28T06:40:03;14.60;99.90
53208;DHT22;39093;52.788;6.940;2023-05-28T06:42:33;14.90;99.90
53208;DHT22;39093;52.788;6.940;2023-05-28T06:45:00;15.10;99.90
53208;DHT22;39093;52.788;6.940;2023-05-28T06:47:27;15.40;99.90
53208;DHT22;39093;52.788;6.940;2023-05-28T06:49:55;15.70;99.90
53208;DHT22;39093;52.788;6.940;2023-05-28T06:52:22;15.90;99.90
53208;DHT22;39093;52.788;6.940;2023-05-28T06:54:50;16.00;99.90
53208;DHT22;39093;52.788;6.940;2023-05-28T06:57:17;16.00;99.90
53208;DHT22;39093;52.788;6.940;2023-05-28T06:59:44;16.00;99.90
53208;DHT22;39093;52.788;6.940;2023-05-28T07:02:11;15.80;99.90
53208;DHT22;39093;52.788;6.940;2023-05-28T07:04:38;15.80;99.90
53208;DHT22;39093;52.788;6.940;2023-05-28T07:07:05;16.00;99.90
53208;DHT22;39093;52.788;6.940;2023-05-28T07:09:32;16.20;99.90
53208;DHT22;39093;52.788;6.940;2023-05-28T07:12:00;16.30;99.90
53208;DHT22;39093;52.788;6.940;2023-05-28T07:14:28;16.50;99.90
53208;DHT22;39093;52.788;6.940;2023-05-28T07:16:58;16.60;99.90
53208;DHT22;39093;52.788;6.940;2023-05-28T07:19:25;16.80;99.90
53208;DHT22;39093;52.788;6.940;2023-05-28T07:21:52;17.00;99.90
53208;DHT22;39093;52.788;6.940;2023-05-28T07:24:19;17.20;99.90
53208;DHT22;39093;52.788;6.940;2023-05-28T07:26:46;17.30;99.90
53208;DHT22;39093;52.788;6.940;2023-05-28T07:29:15;17.50;99.90
53208;DHT22;39093;52.788;6.940;2023-05-28T07:31:45;17.80;99.90
53208;DHT22;39093;52.788;6.940;2023-05-28T07:34:12;17.60;99.90
53208;DHT22;39093;52.788;6.940;2023-05-28T07:36:39;17.70;99.90
53208;DHT22;39093;52.788;6.940;2023-05-28T07:39:05;17.80;99.90
53208;DHT22;39093;52.788;6.940;2023-05-28T07:41:32;18.00;99.90
53208;DHT22;39093;52.788;6.940;2023-05-28T07:44:01;18.20;99.90
53208;DHT22;39093;52.788;6.940;2023-05-28T07:46:28;18.30;99.90
53208;DHT22;39093;52.788;6.940;2023-05-28T07:48:55;18.40;99.90
53208;DHT22;39093;52.788;6.940;2023-05-28T07:51:22;18.60;99.90
53208;DHT22;39093;52.788;6.940;2023-05-28T07:53:49;18.70;99.90
53208;DHT22;39093;52.788;6.940;2023-05-28T07:56:16;18.90;99.90
53208;DHT22;39093;52.788;6.940;2023-05-28T07:58:44;18.90;99.40
53208;DHT22;39093;52.788;6.940;2023-05-28T08:01:12;19.10;99.90
53208;DHT22;39093;52.788;6.940;2023-05-28T08:03:40;19.30;99.70
53208;DHT22;39093;52.788;6.940;2023-05-28T08:06:07;19.40;99.90
53208;DHT22;39093;52.788;6.940;2023-05-28T08:08:35;19.60;98.50
53208;DHT22;39093;52.788;6.940;2023-05-28T08:11:02;19.60;97.70
53208;DHT22;39093;52.788;6.940;2023-05-28T08:13:31;19.60;95.40
53208;DHT22;39093;52.788;6.940;2023-05-28T08:15:58;19.50;95.10
53208;DHT22;39093;52.788;6.940;2023-05-28T08:18:27;19.40;95.90
53208;DHT22;39093;52.788;6.940;2023-05-28T08:20:56;19.40;96.00
53208;DHT22;39093;52.788;6.940;2023-05-28T08:23:23;19.40;95.10
53208;DHT22;39093;52.788;6.940;2023-05-28T08:25:51;19.30;96.10
53208;DHT22;39093;52.788;6.940;2023-05-28T08:28:22;19.40;96.40
53208;DHT22;39093;52.788;6.940;2023-05-28T08:30:50;19.50;95.60
53208;DHT22;39093;52.788;6.940;2023-05-28T08:33:17;19.60;96.60
53208;DHT22;39093;52.788;6.940;2023-05-28T08:35:44;19.70;96.80
53208;DHT22;39093;52.788;6.940;2023-05-28T08:38:11;19.90;95.70
53208;DHT22;39093;52.788;6.940;2023-05-28T08:40:43;20.00;95.50
53208;DHT22;39093;52.788;6.940;2023-05-28T08:43:10;20.10;95.00
53208;DHT22;39093;52.788;6.940;2023-05-28T08:45:37;20.10;95.20
53208;DHT22;39093;52.788;6.940;2023-05-28T08:48:05;20.30;95.10
53208;DHT22;39093;52.788;6.940;2023-05-28T08:50:39;20.30;94.50
53208;DHT22;39093;52.788;6.940;2023-05-28T08:53:07;20.40;93.80
53208;DHT22;39093;52.788;6.940;2023-05-28T08:55:38;20.50;93.80
53208;DHT22;39093;52.788;6.940;2023-05-28T08:58:05;20.50;94.00
53208;DHT22;39093;52.788;6.940;2023-05-28T09:00:33;20.30;93.40
53208;DHT22;39093;52.788;6.940;2023-05-28T09:03:00;20.40;94.10
53208;DHT22;39093;52.788;6.940;2023-05-28T09:05:27;20.50;93.50
53208;DHT22;39093;52.788;6.940;2023-05-28T09:07:54;20.60;94.30
53208;DHT22;39093;52.788;6.940;2023-05-28T09:10:22;20.50;94.00
53208;DHT22;39093;52.788;6.940;2023-05-28T09:12:59;20.60;93.90
53208;DHT22;39093;52.788;6.940;2023-05-28T09:15:28;20.70;92.20
53208;DHT22;39093;52.788;6.940;2023-05-28T09:17:58;20.80;93.10
53208;DHT22;39093;52.788;6.940;2023-05-28T09:20:27;20.90;93.30
53208;DHT22;39093;52.788;6.940;2023-05-28T09:23:04;21.00;93.20
53208;DHT22;39093;52.788;6.940;2023-05-28T09:25:35;21.10;92.80
53208;DHT22;39093;52.788;6.940;2023-05-28T09:28:03;21.00;92.70
53208;DHT22;39093;52.788;6.940;2023-05-28T09:30:34;20.90;92.90
53208;DHT22;39093;52.788;6.940;2023-05-28T09:33:03;21.00;92.50
53208;DHT22;39093;52.788;6.940;2023-05-28T09:35:31;21.10;93.10
53208;DHT22;39093;52.788;6.940;2023-05-28T09:38:04;21.20;91.90
53208;DHT22;39093;52.788;6.940;2023-05-28T09:40:31;21.00;90.80
53208;DHT22;39093;52.788;6.940;2023-05-28T09:43:04;20.80;92.00
53208;DHT22;39093;52.788;6.940;2023-05-28T09:45:31;20.80;91.80
53208;DHT22;39093;52.788;6.940;2023-05-28T09:47:58;20.80;93.00
53208;DHT22;39093;52.788;6.940;2023-05-28T09:50:25;21.00;92.20
53208;DHT22;39093;52.788;6.940;2023-05-28T09:52:55;21.20;92.50
53208;DHT22;39093;52.788;6.940;2023-05-28T09:55:25;21.20;92.50
53208;DHT22;39093;52.788;6.940;2023-05-28T09:58:02;21.20;91.90
53208;DHT22;39093;52.788;6.940;2023-05-28T10:06:00;21.30;92.90
53208;DHT22;39093;52.788;6.940;2023-05-28T10:08:28;21.50;92.30
53208;DHT22;39093;52.788;6.940;2023-05-28T10:10:55;21.50;91.50
53208;DHT22;39093;52.788;6.940;2023-05-28T10:13:23;21.50;91.80
53208;DHT22;39093;52.788;6.940;2023-05-28T10:15:50;21.60;91.70
53208;DHT22;39093;52.788;6.940;2023-05-28T10:18:18;21.70;92.20
53208;DHT22;39093;52.788;6.940;2023-05-28T10:20:46;21.90;92.30
53208;DHT22;39093;52.788;6.940;2023-05-28T10:23:13;21.90;90.40
53208;DHT22;39093;52.788;6.940;2023-05-28T10:25:41;22.00;90.80
53208;DHT22;39093;52.788;6.940;2023-05-28T10:28:08;22.10;90.50
53208;DHT22;39093;52.788;6.940;2023-05-28T10:30:37;22.00;89.10
53208;DHT22;39093;52.788;6.940;2023-05-28T10:33:05;22.00;89.90
53208;DHT22;39093;52.788;6.940;2023-05-28T10:35:34;22.00;90.70
53208;DHT22;39093;52.788;6.940;2023-05-28T10:38:08;22.20;90.70
53208;DHT22;39093;52.788;6.940;2023-05-28T10:40:39;22.20;88.30
53208;DHT22;39093;52.788;6.940;2023-05-28T10:49:14;22.40;86.90
53208;DHT22;39093;52.788;6.940;2023-05-28T10:51:57;22.50;87.20
53208;DHT22;39093;52.788;6.940;2023-05-28T10:54:40;22.70;85.00
53208;DHT22;39093;52.788;6.940;2023-05-28T10:57:11;22.90;86.00
53208;DHT22;39093;52.788;6.940;2023-05-28T10:59:43;23.10;87.10
53208;DHT22;39093;52.788;6.940;2023-05-28T11:02:16;23.20;84.80
53208;DHT22;39093;52.788;6.940;2023-05-28T11:04:43;23.40;84.80
53208;DHT22;39093;52.788;6.940;2023-05-28T11:07:12;23.40;84.10
53208;DHT22;39093;52.788;6.940;2023-05-28T11:09:39;23.20;80.70
53208;DHT22;39093;52.788;6.940;2023-05-28T11:12:07;23.40;82.90
53208;DHT22;39093;52.788;6.940;2023-05-28T11:14:38;23.60;80.10
53208;DHT22;39093;52.788;6.940;2023-05-28T11:17:09;23.80;82.50
53208;DHT22;39093;52.788;6.940;2023-05-28T11:19:45;23.80;79.20
53208;DHT22;39093;52.788;6.940;2023-05-28T11:22:13;23.70;77.70
53208;DHT22;39093;52.788;6.940;2023-05-28T11:27:17;24.10;76.60
53208;DHT22;39093;52.788;6.940;2023-05-28T11:29:44;24.30;77.20
53208;DHT22;39093;52.788;6.940;2023-05-28T11:32:11;24.60;79.20
53208;DHT22;39093;52.788;6.940;2023-05-28T11:34:38;24.40;72.50
53208;DHT22;39093;52.788;6.940;2023-05-28T11:37:05;24.60;72.90
53208;DHT22;39093;52.788;6.940;2023-05-28T11:39:34;24.40;71.50
53208;DHT22;39093;52.788;6.940;2023-05-28T11:42:03;24.30;72.60
53208;DHT22;39093;52.788;6.940;2023-05-28T11:44:30;24.40;71.20
53208;DHT22;39093;52.788;6.940;2023-05-28T11:46:58;24.30;70.80
53208;DHT22;39093;52.788;6.940;2023-05-28T11:49:27;24.50;71.50
53208;DHT22;39093;52.788;6.940;2023-05-28T11:51:54;24.90;73.00
53208;DHT22;39093;52.788;6.940;2023-05-28T11:54:21;25.20;71.70
53208;DHT22;39093;52.788;6.940;2023-05-28T11:56:49;25.30;68.70
53208;DHT22;39093;52.788;6.940;2023-05-28T11:59:17;25.20;66.60
53208;DHT22;39093;52.788;6.940;2023-05-28T12:01:45;25.40;69.40
53208;DHT22;39093;52.788;6.940;2023-05-28T12:04:12;25.70;68.80
53208;DHT22;39093;52.788;6.940;2023-05-28T12:06:52;26.00;68.50
53208;DHT22;39093;52.788;6.940;2023-05-28T12:09:20;26.00;66.70
53208;DHT22;39093;52.788;6.940;2023-05-28T12:12:09;26.00;66.70
53208;DHT22;39093;52.788;6.940;2023-05-28T12:14:36;26.00;66.90
53208;DHT22;39093;52.788;6.940;2023-05-28T12:17:07;26.20;64.80
53208;DHT22;39093;52.788;6.940;2023-05-28T12:19:39;26.20;65.50
53208;DHT22;39093;52.788;6.940;2023-05-28T12:22:17;26.60;64.80
53208;DHT22;39093;52.788;6.940;2023-05-28T12:24:50;26.50;62.90
53208;DHT22;39093;52.788;6.940;2023-05-28T12:27:17;26.60;62.70
53208;DHT22;39093;52.788;6.940;2023-05-28T12:29:45;26.50;61.90
53208;DHT22;39093;52.788;6.940;2023-05-28T12:32:12;26.30;62.80
53208;DHT22;39093;52.788;6.940;2023-05-28T12:34:39;26.20;60.80
53208;DHT22;39093;52.788;6.940;2023-05-28T12:37:06;26.20;59.10
53208;DHT22;39093;52.788;6.940;2023-05-28T12:39:37;26.20;61.10
53208;DHT22;39093;52.788;6.940;2023-05-28T12:42:04;26.40;61.20
53208;DHT22;39093;52.788;6.940;2023-05-28T12:44:31;26.50;60.60
53208;DHT22;39093;52.788;6.940;2023-05-28T12:46:58;26.90;61.90
53208;DHT22;39093;52.788;6.940;2023-05-28T12:49:25;27.00;59.70
53208;DHT22;39093;52.788;6.940;2023-05-28T12:51:52;27.10;59.40
53208;DHT22;39093;52.788;6.940;2023-05-28T12:54:19;27.00;58.50
53208;DHT22;39093;52.788;6.940;2023-05-28T12:56:47;27.30;58.40
53208;DHT22;39093;52.788;6.940;2023-05-28T12:59:25;27.80;60.30
53208;DHT22;39093;52.788;6.940;2023-05-28T13:01:53;27.90;57.00
53208;DHT22;39093;52.788;6.940;2023-05-28T13:04:21;27.80;55.70
53208;DHT22;39093;52.788;6.940;2023-05-28T13:06:49;27.70;52.20
53208;DHT22;39093;52.788;6.940;2023-05-28T13:09:20;27.90;55.60
53208;DHT22;39093;52.788;6.940;2023-05-28T13:11:49;28.20;54.60
53208;DHT22;39093;52.788;6.940;2023-05-28T13:14:16;28.10;53.20
53208;DHT22;39093;52.788;6.940;2023-05-28T13:16:43;28.50;55.00
53208;DHT22;39093;52.788;6.940;2023-05-28T13:19:10;28.80;53.00
53208;DHT22;39093;52.788;6.940;2023-05-28T13:21:37;29.00;53.40
53208;DHT22;39093;52.788;6.940;2023-05-28T13:24:06;28.80;50.40
53208;DHT22;39093;52.788;6.940;2023-05-28T13:26:34;28.90;51.90
53208;DHT22;39093;52.788;6.940;2023-05-28T13:29:05;28.70;49.00
53208;DHT22;39093;52.788;6.940;2023-05-28T13:31:32;28.40;50.50
53208;DHT22;39093;52.788;6.940;2023-05-28T13:33:59;27.90;51.30
53208;DHT22;39093;52.788;6.940;2023-05-28T13:36:28;28.50;52.80
53208;DHT22;39093;52.788;6.940;2023-05-28T13:38:56;28.90;51.40
53208;DHT22;39093;52.788;6.940;2023-05-28T13:41:23;28.60;49.80
53208;DHT22;39093;52.788;6.940;2023-05-28T13:43:54;28.70;50.10
53208;DHT22;39093;52.788;6.940;2023-05-28T13:46:22;29.20;50.70
53208;DHT22;39093;52.788;6.940;2023-05-28T13:48:51;29.80;51.40
53208;DHT22;39093;52.788;6.940;2023-05-28T13:51:18;29.80;48.60
53208;DHT22;39093;52.788;6.940;2023-05-28T13:53:46;29.40;49.20
53208;DHT22;39093;52.788;6.940;2023-05-28T13:56:14;29.20;50.00
53208;DHT22;39093;52.788;6.940;2023-05-28T13:58:41;29.10;49.30
53208;DHT22;39093;52.788;6.940;2023-05-28T14:01:08;28.70;50.20
53208;DHT22;39093;52.788;6.940;2023-05-28T14:03:35;29.10;50.90
53208;DHT22;39093;52.788;6.940;2023-05-28T14:06:02;29.40;51.70
53208;DHT22;39093;52.788;6.940;2023-05-28T14:08:30;30.20;51.00
53208;DHT22;39093;52.788;6.940;2023-05-28T14:10:57;30.70;48.60
53208;DHT22;39093;52.788;6.940;2023-05-28T14:13:24;31.10;50.00
53208;DHT22;39093;52.788;6.940;2023-05-28T14:16:00;31.20;48.50
53208;DHT22;39093;52.788;6.940;2023-05-28T14:18:28;30.50;48.90
53208;DHT22;39093;52.788;6.940;2023-05-28T14:20:55;30.30;51.10
53208;DHT22;39093;52.788;6.940;2023-05-28T14:23:23;30.70;48.20
53208;DHT22;39093;52.788;6.940;2023-05-28T14:25:50;30.70;50.20
53208;DHT22;39093;52.788;6.940;2023-05-28T14:28:17;31.20;50.10
53208;DHT22;39093;52.788;6.940;2023-05-28T14:30:44;31.40;49.70
53208;DHT22;39093;52.788;6.940;2023-05-28T14:33:11;31.10;50.30
53208;DHT22;39093;52.788;6.940;2023-05-28T14:35:38;30.40;49.90
53208;DHT22;39093;52.788;6.940;2023-05-28T14:38:05;30.50;52.80
53208;DHT22;39093;52.788;6.940;2023-05-28T14:40:32;30.70;51.20
53208;DHT22;39093;52.788;6.940;2023-05-28T14:42:59;31.00;52.30
53208;DHT22;39093;52.788;6.940;2023-05-28T14:45:26;30.30;53.60
53208;DHT22;39093;52.788;6.940;2023-05-28T14:47:54;29.70;54.80
53208;DHT22;39093;52.788;6.940;2023-05-28T14:50:22;29.40;55.30
53208;DHT22;39093;52.788;6.940;2023-05-28T14:52:48;29.10;56.40
53208;DHT22;39093;52.788;6.940;2023-05-28T14:55:16;29.00;57.10
53208;DHT22;39093;52.788;6.940;2023-05-28T14:57:46;29.30;57.00
53208;DHT22;39093;52.788;6.940;2023-05-28T15:00:14;29.30;56.30
53208;DHT22;39093;52.788;6.940;2023-05-28T15:02:42;28.90;57.70
53208;DHT22;39093;52.788;6.940;2023-05-28T15:05:09;29.20;58.80
53208;DHT22;39093;52.788;6.940;2023-05-28T15:07:36;28.90;57.30
53208;DHT22;39093;52.788;6.940;2023-05-28T15:10:04;28.50;57.80
53208;DHT22;39093;52.788;6.940;2023-05-28T15:12:31;28.60;58.80
53208;DHT22;39093;52.788;6.940;2023-05-28T15:14:58;28.40;58.70
53208;DHT22;39093;52.788;6.940;2023-05-28T15:17:25;28.40;59.10
53208;DHT22;39093;52.788;6.940;2023-05-28T15:19:52;27.70;58.80
53208;DHT22;39093;52.788;6.940;2023-05-28T15:22:19;26.90;59.30
53208;DHT22;39093;52.788;6.940;2023-05-28T15:24:49;26.30;60.50
53208;DHT22;39093;52.788;6.940;2023-05-28T15:27:16;26.70;61.70
53208;DHT22;39093;52.788;6.940;2023-05-28T15:29:43;27.00;61.30
53208;DHT22;39093;52.788;6.940;2023-05-28T15:32:11;26.90;60.60
53208;DHT22;39093;52.788;6.940;2023-05-28T15:34:40;26.50;61.20
53208;DHT22;39093;52.788;6.940;2023-05-28T15:37:10;25.70;61.70
53208;DHT22;39093;52.788;6.940;2023-05-28T15:39:37;24.90;62.00
53208;DHT22;39093;52.788;6.940;2023-05-28T15:42:05;24.50;62.60
53208;DHT22;39093;52.788;6.940;2023-05-28T15:44:34;24.10;63.50
53208;DHT22;39093;52.788;6.940;2023-05-28T15:47:01;23.70;64.70
53208;DHT22;39093;52.788;6.940;2023-05-28T15:49:29;23.30;64.90